Patton, Missouri
Current Conditions -  °F | °C
As of 11:15 AM on Thursday 27 Nov 2014 (Local Time) from KFAM Reporting Station
Overcast Overcast  
Wind Chill: 26°   Ceiling: 2300
Heat Index: 32°   Visibility: 9mi
Dew Point: 25°   Wind: 7mph
Humidity: 75%   Direction: 290°WNW
Pressure: 30.48"   Gusts: NA
Location:  37.5°N, 90.01°W
Report Text: KFAM 271715Z AUTO 29006KT 9SM BKN023 OVC028 00/M04 A3048 RMK AO1
Loading
Personal Weather Stations






























Interactive Weather Map New forecast layout! Learn more

10-Day Weather Forecast

Advertisements
Track Severe Weather on mobile